Time;durP1;ratioP1;P1;durP2;ratioP2;P2;SDS_P1;SDS_P2;PMS_P1;PMS_P2;Temp;Humidity;BMP_temperature;BMP_pressure;BME280_temperature;BME280_humidity;BME280_pressure;Samples;Min_cycle;Max_cycle;Signal;HPM_P1;HPM_P2
2021/12/21 00:02:16;;;;;;;9.53;6.80;;;;;;;-13.78;71.26;101330.59;4974564;28;20498;-68
2021/12/21 00:04:42;;;;;;;8.97;6.17;;;;;;;-13.91;71.52;101315.19;4974363;28;20121;-68
2021/12/21 00:07:11;;;;;;;7.32;6.20;;;;;;;-13.74;71.03;101333.16;4974258;28;20035;-69
2021/12/21 00:09:37;;;;;;;9.53;5.40;;;;;;;-13.75;71.37;101324.63;4974419;28;20409;-68
2021/12/21 00:12:02;;;;;;;6.47;5.40;;;;;;;-13.78;71.06;101311.81;4973771;28;20038;-69
2021/12/21 00:14:45;;;;;;;6.83;5.70;;;;;;;-13.75;70.48;101314.38;4974161;28;20047;-67
2021/12/21 00:22:16;;;;;;;8.33;6.37;;;;;;;-13.72;70.82;101334.00;4974151;28;20061;-67
2021/12/21 00:24:47;;;;;;;6.78;5.85;;;;;;;-13.61;71.44;101345.13;4973689;28;20045;-69
2021/12/21 00:27:14;;;;;;;20.92;6.50;;;;;;;-13.58;71.40;101340.88;4974118;28;20039;-69
2021/12/21 00:29:42;;;;;;;6.75;5.65;;;;;;;-13.80;70.89;101296.44;4973758;28;20410;-69
2021/12/21 00:32:09;;;;;;;11.52;6.57;;;;;;;-13.63;70.81;101334.03;4973981;28;20074;-69
2021/12/21 00:34:35;;;;;;;8.00;6.47;;;;;;;-13.59;70.95;101341.72;4973646;28;20117;-69
2021/12/21 00:37:00;;;;;;;6.20;5.53;;;;;;;-13.67;71.09;101322.91;4974043;28;20467;-69
2021/12/21 00:39:26;;;;;;;8.17;5.50;;;;;;;-13.55;70.78;101333.19;4974201;28;20038;-67
2021/12/21 00:41:51;;;;;;;6.73;5.93;;;;;;;-13.53;71.48;101341.75;4973838;28;20094;-70
2021/12/21 00:44:17;;;;;;;5.90;5.40;;;;;;;-13.48;70.36;101334.06;4973999;28;20030;-70
2021/12/21 00:46:44;;;;;;;7.70;5.90;;;;;;;-13.53;70.62;101336.63;4973743;28;20045;-69
2021/12/21 00:49:17;;;;;;;7.03;5.45;;;;;;;-13.56;70.17;101331.50;4973970;28;20066;-69
2021/12/21 00:51:44;;;;;;;6.22;5.05;;;;;;;-13.48;70.10;101347.72;4974132;28;20031;-68
2021/12/21 00:54:11;;;;;;;5.95;5.25;;;;;;;-13.48;70.13;101340.03;4973904;28;20049;-71
2021/12/21 00:56:37;;;;;;;6.88;5.78;;;;;;;-13.53;70.14;101334.06;4974103;28;20042;-65
2021/12/21 00:59:04;;;;;;;6.10;5.50;;;;;;;-13.53;69.87;101339.19;4973594;28;20078;-66
2021/12/21 01:01:29;;;;;;;8.05;6.10;;;;;;;-13.67;69.82;101328.03;4974583;28;20045;-68
2021/12/21 01:03:57;;;;;;;8.80;5.53;;;;;;;-13.59;70.17;101346.81;4974442;28;20038;-68
2021/12/21 01:06:37;;;;;;;6.63;5.63;;;;;;;-13.72;70.45;101328.88;4978281;28;20030;-68
2021/12/21 01:11:46;;;;;;;8.25;5.32;;;;;;;-13.94;70.58;101322.84;4980605;28;20483;-70
2021/12/21 01:16:48;;;;;;;8.43;6.75;;;;;;;-13.82;70.25;101326.31;4984139;28;20034;-68
2021/12/21 01:19:21;;;;;;;6.22;5.30;;;;;;;-13.82;70.51;101322.91;4982702;28;20034;-69
2021/12/21 01:35:51;;;;;;;4.43;4.03;;;;;;;-13.79;71.19;101333.16;4973241;28;20054;-68
2021/12/21 01:40:53;;;;;;;6.00;5.28;;;;;;;-13.79;71.00;101354.50;4984844;28;20031;-68
2021/12/21 01:51:31;;;;;;;6.15;4.65;;;;;;;-13.96;71.83;101319.44;4990450;28;20066;-68
2021/12/21 01:53:56;;;;;;;5.93;5.43;;;;;;;-13.87;71.51;101334.84;4987152;28;20050;-68
2021/12/21 01:56:23;;;;;;;5.67;5.13;;;;;;;-13.98;71.53;101311.75;4988434;28;20125;-69
2021/12/21 01:58:49;;;;;;;5.10;4.68;;;;;;;-13.98;71.24;101321.13;4986363;28;20042;-68
2021/12/21 02:01:17;;;;;;;5.73;5.13;;;;;;;-13.95;71.55;101329.69;4988335;28;20035;-68
2021/12/21 02:03:47;;;;;;;5.38;4.55;;;;;;;-13.97;71.86;101323.69;4985101;28;20637;-67
2021/12/21 02:06:21;;;;;;;7.13;5.35;;;;;;;-13.92;71.04;101336.50;4985813;28;20047;-66
2021/12/21 02:08:47;;;;;;;8.27;5.90;;;;;;;-13.95;71.67;101346.75;4983163;28;20034;-68
2021/12/21 02:11:16;;;;;;;5.97;5.40;;;;;;;-14.06;71.36;101322.81;4983211;28;20506;-65
2021/12/21 02:13:48;;;;;;;8.90;5.90;;;;;;;-14.01;71.13;101339.06;4983095;28;20053;-67
2021/12/21 02:16:25;;;;;;;6.80;6.22;;;;;;;-14.01;71.38;101345.03;4983943;28;20042;-68
2021/12/21 02:21:39;;;;;;;6.25;5.10;;;;;;;-14.11;71.72;101339.03;4984108;28;20085;-69
2021/12/21 02:24:11;;;;;;;7.15;5.30;;;;;;;-14.27;70.99;101319.34;4984312;28;20046;-68
2021/12/21 02:26:47;;;;;;;7.07;6.13;;;;;;;-14.35;71.43;101331.25;4980637;28;20436;-69
2021/12/21 02:29:24;;;;;;;6.18;5.60;;;;;;;-14.31;72.18;101350.03;4977875;28;20403;-67
2021/12/21 02:31:52;;;;;;;7.38;5.90;;;;;;;-14.31;72.09;101361.09;4979265;28;20586;-66
2021/12/21 02:34:19;;;;;;;7.55;5.35;;;;;;;-14.35;72.09;101351.72;4977431;28;20422;-71
2021/12/21 02:36:48;;;;;;;6.53;5.30;;;;;;;-14.35;72.30;101355.97;4978748;28;20046;-67
2021/12/21 02:39:15;;;;;;;4.47;4.10;;;;;;;-14.27;71.68;101365.38;4979984;28;20042;-68
2021/12/21 02:41:42;;;;;;;6.18;5.57;;;;;;;-14.26;71.48;101371.34;4978688;28;20043;-70
2021/12/21 02:44:08;;;;;;;5.45;4.63;;;;;;;-14.34;72.11;101363.66;4962706;28;20031;-68
2021/12/21 02:46:34;;;;;;;6.22;5.63;;;;;;;-14.30;72.17;101365.38;4965473;28;20035;-68
2021/12/21 02:49:00;;;;;;;13.40;5.47;;;;;;;-14.29;71.96;101367.09;4979852;28;20035;-67
2021/12/21 02:51:25;;;;;;;6.30;5.57;;;;;;;-14.33;71.97;101365.38;4976511;28;20560;-69
2021/12/21 02:53:51;;;;;;;5.97;5.47;;;;;;;-14.37;72.10;101362.78;4975353;28;20137;-68
2021/12/21 02:56:17;;;;;;;5.50;5.10;;;;;;;-14.50;72.31;101351.66;4976620;28;20038;-69
2021/12/21 02:58:43;;;;;;;7.27;6.17;;;;;;;-14.46;72.67;101361.03;4976533;28;20030;-68
2021/12/21 03:01:10;;;;;;;13.20;5.80;;;;;;;-14.45;72.64;101365.34;4976622;28;20047;-68
2021/12/21 03:03:36;;;;;;;5.57;5.07;;;;;;;-14.47;72.63;101369.56;4978244;28;20039;-70
2021/12/21 03:06:05;;;;;;;8.02;6.28;;;;;;;-14.49;72.60;101381.50;4976468;28;20070;-69
2021/12/21 03:13:54;;;;;;;7.45;5.65;;;;;;;-14.35;72.21;101377.28;4976141;28;20061;-69
2021/12/21 03:16:21;;;;;;;7.50;5.32;;;;;;;-14.28;72.65;101388.41;4976809;28;20039;-67
2021/12/21 03:18:47;;;;;;;5.90;5.18;;;;;;;-14.34;72.97;101367.91;4975666;28;20490;-66
2021/12/21 03:21:13;;;;;;;8.60;5.20;;;;;;;-14.34;73.04;101362.78;4975179;28;20035;-69
2021/12/21 03:23:40;;;;;;;5.28;4.78;;;;;;;-14.24;72.54;101372.22;4975690;28;20073;-69
2021/12/21 03:26:06;;;;;;;5.70;5.20;;;;;;;-14.19;72.48;101373.09;4975270;28;20042;-67
2021/12/21 03:28:32;;;;;;;5.95;5.35;;;;;;;-14.48;72.40;101337.16;4974158;28;20533;-68
2021/12/21 03:30:58;;;;;;;5.90;5.00;;;;;;;-14.21;72.90;101391.00;4975523;28;20055;-68
2021/12/21 03:33:23;;;;;;;5.30;4.80;;;;;;;-14.30;72.77;101374.75;4974968;28;20125;-69
2021/12/21 03:35:49;;;;;;;7.83;5.30;;;;;;;-14.16;72.79;101391.03;4975189;28;20050;-69
2021/12/21 03:38:15;;;;;;;6.07;5.57;;;;;;;-14.23;73.34;101397.81;4974903;28;20439;-70
2021/12/21 03:40:42;;;;;;;9.23;5.85;;;;;;;-14.29;73.36;101382.44;4958245;28;20039;-69
2021/12/21 03:43:10;;;;;;;7.65;6.10;;;;;;;-14.21;73.17;101391.00;4974869;28;20506;-70
2021/12/21 03:45:39;;;;;;;6.65;5.30;;;;;;;-14.29;73.42;101372.19;4975033;28;20364;-66
2021/12/21 03:48:06;;;;;;;6.13;5.60;;;;;;;-14.16;73.72;101401.28;4974707;28;20073;-70
2021/12/21 03:50:32;;;;;;;8.70;4.65;;;;;;;-14.12;73.37;101401.31;4974878;28;20083;-69
2021/12/21 03:52:57;;;;;;;6.53;5.90;;;;;;;-14.14;73.46;101399.59;4975275;28;20062;-68
2021/12/21 03:55:22;;;;;;;5.23;4.80;;;;;;;-14.19;73.31;101375.66;4957989;28;20469;-70
2021/12/21 03:57:48;;;;;;;4.90;4.53;;;;;;;-14.52;73.26;101322.66;4975189;28;20149;-67
2021/12/21 04:00:15;;;;;;;7.60;5.70;;;;;;;-14.18;73.10;101382.47;4975378;28;20038;-68
2021/12/21 04:02:41;;;;;;;6.18;4.90;;;;;;;-14.15;73.15;101396.16;4957943;28;20038;-66
2021/12/21 04:05:07;;;;;;;6.93;6.10;;;;;;;-14.13;73.24;101391.91;4974536;28;20510;-69
2021/12/21 04:07:33;;;;;;;13.80;5.82;;;;;;;-14.06;73.35;101394.50;4941328;28;20037;-68
2021/12/21 04:09:59;;;;;;;5.87;5.27;;;;;;;-14.16;73.16;101384.22;4974713;28;20091;-69
2021/12/21 04:12:25;;;;;;;6.88;5.38;;;;;;;-14.00;73.04;101415.84;4974267;28;20093;-70
2021/12/21 04:14:52;;;;;;;6.47;5.70;;;;;;;-14.06;73.23;101410.69;4957143;28;20501;-68
2021/12/21 04:17:22;;;;;;;6.43;5.75;;;;;;;-14.50;73.33;101354.22;4957535;28;20405;-67
2021/12/21 04:19:48;;;;;;;6.57;5.40;;;;;;;-14.29;73.57;101391.81;4974388;28;20061;-68
2021/12/21 04:22:15;;;;;;;8.38;6.20;;;;;;;-14.25;72.97;101399.50;4975007;28;20046;-68
2021/12/21 04:24:42;;;;;;;7.35;6.63;;;;;;;-14.15;73.23;101418.34;4974328;28;20129;-69
2021/12/21 04:27:07;;;;;;;7.00;5.55;;;;;;;-14.27;73.19;101408.03;4974616;28;20049;-68
2021/12/21 04:29:33;;;;;;;7.23;6.53;;;;;;;-14.20;72.63;101425.13;4974437;28;20034;-70
2021/12/21 04:31:59;;;;;;;9.70;6.97;;;;;;;-14.26;72.42;101423.38;4974268;28;20419;-69
2021/12/21 04:34:25;;;;;;;11.88;7.93;;;;;;;-14.27;72.87;101425.94;4974985;28;20047;-67
2021/12/21 04:36:53;;;;;;;9.20;6.40;;;;;;;-14.32;72.83;101414.81;4973237;28;20524;-67
2021/12/21 04:39:30;;;;;;;7.78;6.15;;;;;;;-14.55;72.99;101387.44;4974343;28;20121;-69
2021/12/21 04:41:56;;;;;;;6.28;5.22;;;;;;;-14.34;73.31;101422.50;4974126;28;20634;-70
2021/12/21 04:44:21;;;;;;;6.90;6.20;;;;;;;-14.40;73.55;101425.88;4973945;28;20039;-69
2021/12/21 04:46:47;;;;;;;10.23;6.13;;;;;;;-14.43;73.24;101414.81;4974537;28;20117;-68
2021/12/21 04:49:12;;;;;;;12.03;5.83;;;;;;;-14.52;73.37;101405.34;4975253;28;20035;-69
2021/12/21 04:51:38;;;;;;;7.63;5.67;;;;;;;-14.50;72.93;101407.91;4956923;28;20129;-70
2021/12/21 04:54:04;;;;;;;11.63;6.80;;;;;;;-14.47;73.07;101418.16;4974233;28;20045;-69
2021/12/21 04:56:29;;;;;;;7.07;5.87;;;;;;;-14.51;73.73;101413.88;4976108;28;20127;-67
2021/12/21 04:58:55;;;;;;;9.37;7.03;;;;;;;-15.02;73.68;101335.16;4976024;28;20043;-70
2021/12/21 05:01:20;;;;;;;8.17;5.77;;;;;;;-14.33;73.41;101436.16;4959401;28;20034;-69
2021/12/21 05:03:46;;;;;;;7.90;7.17;;;;;;;-14.25;73.69;101439.59;4976925;28;20034;-68
2021/12/21 05:06:13;;;;;;;5.83;5.33;;;;;;;-14.28;73.45;101434.47;4975316;28;20042;-66
2021/12/21 05:08:40;;;;;;;11.15;5.75;;;;;;;-14.21;73.56;101444.72;4973780;28;20038;-68
2021/12/21 05:11:06;;;;;;;8.65;5.95;;;;;;;-14.23;73.53;101438.75;4956583;28;20105;-68
2021/12/21 05:13:38;;;;;;;7.90;6.35;;;;;;;-14.55;73.57;101373.78;4974145;28;20050;-68
2021/12/21 05:16:09;;;;;;;7.68;6.35;;;;;;;-14.15;73.13;101437.13;4979162;28;20042;-70
2021/12/21 05:19:02;;;;;;;8.05;5.80;;;;;;;-14.90;73.66;101307.09;5219258;23;20030;-72
2021/12/21 05:21:28;;;;;;;5.97;5.03;;;;;;;-14.33;73.92;101402.88;4977146;28;20149;-66
2021/12/21 05:23:53;;;;;;;7.37;6.03;;;;;;;-14.13;73.91;101419.22;4993561;28;20093;-69
2021/12/21 05:26:19;;;;;;;5.97;5.47;;;;;;;-14.37;73.75;101383.25;4992582;28;20530;-70
2021/12/21 05:28:44;;;;;;;7.63;6.30;;;;;;;-14.15;73.45;101410.66;4993383;28;20525;-70
2021/12/21 05:31:21;;;;;;;6.33;5.17;;;;;;;-14.16;72.96;101401.28;4979462;28;20044;-72
2021/12/21 05:33:51;;;;;;;6.57;5.78;;;;;;;-14.06;73.91;101418.38;4979678;28;20038;-69
2021/12/21 05:36:29;;;;;;;7.45;5.22;;;;;;;-14.03;73.39;101407.31;4984915;28;20034;-66
2021/12/21 05:39:00;;;;;;;7.68;5.68;;;;;;;-14.06;73.46;101412.41;5000362;28;20038;-67
2021/12/21 05:41:45;;;;;;;5.72;5.10;;;;;;;-13.94;73.60;101443.16;5003261;28;20039;-68
2021/12/21 05:44:17;;;;;;;8.07;6.65;;;;;;;-14.05;72.95;101430.34;5004562;28;20037;-69
2021/12/21 05:46:43;;;;;;;7.40;5.13;;;;;;;-14.15;72.38;101437.13;5003687;28;20041;-68
2021/12/21 05:49:12;;;;;;;4.87;4.47;;;;;;;-14.23;72.60;101451.53;5004505;28;20015;-68
2021/12/21 05:51:37;;;;;;;6.27;5.70;;;;;;;-14.28;72.39;101454.94;5000733;28;20100;-67
2021/12/21 05:54:03;;;;;;;9.77;5.87;;;;;;;-14.31;72.23;101457.47;4979437;28;20685;-70
2021/12/21 05:56:29;;;;;;;6.38;5.68;;;;;;;-14.57;72.29;101439.41;4997241;28;20030;-72
2021/12/21 05:59:02;;;;;;;9.70;6.63;;;;;;;-14.56;71.97;101459.88;4996396;28;20034;-71
2021/12/21 06:01:27;;;;;;;7.97;5.78;;;;;;;-14.69;72.20;101441.91;4993392;28;20034;-70
2021/12/21 06:03:56;;;;;;;14.43;6.27;;;;;;;-14.61;71.90;101455.59;4996824;28;20141;-71
2021/12/21 06:06:24;;;;;;;7.22;6.40;;;;;;;-14.57;72.12;101470.09;4997083;28;20441;-71
2021/12/21 06:08:52;;;;;;;6.93;5.25;;;;;;;-14.73;71.63;101456.38;4979074;28;20403;-72
2021/12/21 06:11:22;;;;;;;7.13;5.88;;;;;;;-14.87;71.75;101446.00;4997925;28;20070;-74
2021/12/21 06:28:02;;;;;;;7.03;6.22;;;;;;;-14.67;71.61;101481.13;5022731;28;20045;-71
2021/12/21 06:30:28;;;;;;;9.18;8.38;;;;;;;-14.64;71.42;101491.38;5019436;28;20045;-70
2021/12/21 06:32:54;;;;;;;10.70;6.13;;;;;;;-14.67;71.57;101476.00;5000057;28;20033;-68
2021/12/21 06:35:20;;;;;;;10.38;6.22;;;;;;;-14.54;70.89;101482.91;5023280;28;20049;-73
2021/12/21 06:37:45;;;;;;;9.47;7.17;;;;;;;-14.52;70.88;101482.06;5015616;28;20076;-71
2021/12/21 06:40:11;;;;;;;10.47;6.63;;;;;;;-14.53;71.21;101476.94;5016110;28;20555;-70
2021/12/21 06:42:38;;;;;;;7.63;5.77;;;;;;;-14.40;70.96;101496.66;5015116;28;20481;-76
2021/12/21 06:45:12;;;;;;;10.73;7.35;;;;;;;-14.40;71.16;101494.09;5015496;28;20034;-71
2021/12/21 06:53:06;;;;;;;10.55;6.45;;;;;;;-14.44;71.54;101477.91;5015408;28;20034;-71
2021/12/21 06:55:31;;;;;;;7.20;6.30;;;;;;;-14.35;71.32;101492.41;5015071;28;20034;-71
2021/12/21 06:57:57;;;;;;;9.50;6.30;;;;;;;-14.19;70.90;101504.44;5016060;28;20125;-71
2021/12/21 07:00:22;;;;;;;6.50;5.90;;;;;;;-14.17;71.25;101509.56;5015760;28;20030;-66
2021/12/21 07:02:48;;;;;;;10.17;6.80;;;;;;;-14.23;70.66;101482.25;5016073;28;20042;-73
2021/12/21 07:05:14;;;;;;;5.87;5.37;;;;;;;-14.11;70.54;101517.31;5015842;28;20402;-74
2021/12/21 07:07:40;;;;;;;6.10;5.45;;;;;;;-14.12;70.85;101515.63;5016163;28;20108;-77
2021/12/21 07:10:10;;;;;;;8.68;7.10;;;;;;;-14.13;70.79;101514.75;4998533;28;20491;-62
2021/12/21 07:18:05;;;;;;;6.55;5.95;;;;;;;-14.19;71.33;101511.28;5016319;28;20053;-72
2021/12/21 07:18:30;;;;;;;7.47;6.25;;;;;;;-14.29;71.33;101497.56;5014756;28;20077;-71
2021/12/21 07:20:59;;;;;;;8.90;6.40;;;;;;;-14.13;71.17;101507.06;4996236;28;20053;-69
2021/12/21 07:23:25;;;;;;;11.07;6.95;;;;;;;-14.08;70.93;101514.78;5013439;28;20413;-69
2021/12/21 07:25:51;;;;;;;7.23;6.17;;;;;;;-13.95;71.10;101520.81;5014433;28;20034;-70
2021/12/21 07:28:17;;;;;;;8.43;6.70;;;;;;;-13.81;70.57;101520.06;5014502;28;20273;-70
2021/12/21 07:30:43;;;;;;;7.00;4.93;;;;;;;-13.92;70.41;101498.66;5014321;28;20037;-65
2021/12/21 07:33:09;;;;;;;9.60;5.90;;;;;;;-14.21;70.64;101447.28;5014911;28;20038;-71
2021/12/21 07:35:35;;;;;;;7.57;5.75;;;;;;;-13.79;70.70;101517.50;5014422;28;20488;-70
2021/12/21 07:38:00;;;;;;;7.20;5.70;;;;;;;-13.62;70.78;101543.19;5017475;28;20112;-71
2021/12/21 07:40:26;;;;;;;7.93;6.57;;;;;;;-13.65;70.57;101523.56;5031096;28;20044;-73
2021/12/21 07:42:52;;;;;;;6.47;5.80;;;;;;;-13.58;70.18;101525.31;5036624;28;20430;-63
2021/12/21 07:45:18;;;;;;;7.78;6.80;;;;;;;-13.44;70.30;101540.72;5032616;28;20116;-68
2021/12/21 07:47:44;;;;;;;9.03;6.50;;;;;;;-13.53;70.40;101523.63;5019175;28;20044;-70
2021/12/21 07:50:10;;;;;;;15.37;8.47;;;;;;;-13.56;70.19;101515.94;5038376;28;20017;-70
2021/12/21 07:52:36;;;;;;;9.10;6.68;;;;;;;-13.53;70.87;101518.50;5037382;28;20037;-63
2021/12/21 07:55:04;;;;;;;9.10;6.83;;;;;;;-13.54;70.62;101509.09;5015350;28;20057;-71
2021/12/21 07:57:31;;;;;;;8.73;7.75;;;;;;;-13.43;70.51;101526.22;4996151;28;20038;-72
2021/12/21 07:59:58;;;;;;;9.10;7.03;;;;;;;-13.39;70.98;101533.06;5014052;28;20046;-73
2021/12/21 08:02:26;;;;;;;9.95;7.13;;;;;;;-13.42;70.84;101517.69;5011962;28;20497;-66
2021/12/21 08:04:52;;;;;;;10.55;6.55;;;;;;;-13.36;70.15;101527.94;5013853;28;20044;-66
2021/12/21 08:07:22;;;;;;;14.10;6.07;;;;;;;-13.43;70.96;101524.50;5013694;28;20038;-67
2021/12/21 08:09:51;;;;;;;8.27;7.05;;;;;;;-13.60;70.90;101503.06;5013760;28;20029;-68
2021/12/21 08:12:17;;;;;;;9.73;6.90;;;;;;;-13.39;70.65;101525.38;5014186;28;20053;-64
2021/12/21 08:14:47;;;;;;;11.75;7.20;;;;;;;-13.38;70.90;101533.06;5013885;28;20125;-65
2021/12/21 08:17:14;;;;;;;14.18;5.95;;;;;;;-13.33;71.24;101539.06;5012933;28;20026;-66
2021/12/21 08:19:43;;;;;;;8.27;7.45;;;;;;;-13.35;70.52;101530.50;5000681;28;20417;-70
2021/12/21 08:22:09;;;;;;;;;;;;;;;-13.19;71.13;101539.97;5014187;28;20037;-67
2021/12/21 08:24:34;;;;;;;10.65;6.57;;;;;;;-13.16;70.85;101526.28;5013380;28;19921;-71
2021/12/21 08:27:03;;;;;;;12.47;8.07;;;;;;;-13.05;70.45;101534.84;5013677;28;20041;-62
2021/12/21 08:29:29;;;;;;;20.90;8.32;;;;;;;-12.97;70.11;101546.00;5013415;28;20045;-69
2021/12/21 08:31:55;;;;;;;10.23;7.80;;;;;;;-13.08;70.56;101510.91;5013533;28;20034;-68
2021/12/21 08:34:21;;;;;;;14.27;7.57;;;;;;;-12.93;70.14;101522.09;5013174;28;20041;-68
2021/12/21 08:36:46;;;;;;;11.43;8.73;;;;;;;-12.87;70.29;101527.22;5013150;28;20037;-68
2021/12/21 08:39:13;;;;;;;10.17;8.53;;;;;;;-12.76;69.96;101549.44;5013945;28;20393;-68
2021/12/21 08:41:42;;;;;;;11.35;6.82;;;;;;;-12.77;70.14;101568.25;5012845;28;20532;-71
2021/12/21 08:44:10;;;;;;;9.95;6.53;;;;;;;-13.18;70.66;101517.78;4995777;28;20083;-67
2021/12/21 08:46:39;;;;;;;8.02;6.90;;;;;;;-12.92;70.27;101562.25;5013818;28;20042;-69
2021/12/21 08:49:04;;;;;;;9.43;7.80;;;;;;;-13.22;70.30;101519.47;5013518;28;20032;-72
2021/12/21 08:51:30;;;;;;;9.23;6.43;;;;;;;-13.06;70.94;101553.66;5013745;28;20444;-66
2021/12/21 08:53:56;;;;;;;14.35;7.78;;;;;;;-13.07;70.04;101557.06;5012820;28;20111;-69
2021/12/21 08:56:21;;;;;;;7.80;6.53;;;;;;;-13.14;70.75;101556.19;5013456;28;20124;-73
2021/12/21 08:58:47;;;;;;;18.47;7.53;;;;;;;-13.11;70.73;101559.63;5013286;28;20030;-70
2021/12/21 09:01:12;;;;;;;8.60;6.80;;;;;;;-13.48;70.68;101506.56;4995496;28;20405;-68
2021/12/21 09:03:38;;;;;;;8.63;7.27;;;;;;;-13.23;71.53;101565.59;5012978;28;20049;-77
2021/12/21 09:06:04;;;;;;;8.18;6.63;;;;;;;-13.38;71.63;101545.03;5012848;28;20511;-72
2021/12/21 09:08:30;;;;;;;9.90;8.17;;;;;;;-13.35;71.81;101556.13;4995323;28;20120;-72
2021/12/21 09:11:02;;;;;;;12.87;8.63;;;;;;;-13.63;72.43;101503.91;5012458;28;20038;-70
2021/12/21 09:13:28;;;;;;;8.60;7.15;;;;;;;-13.19;71.94;101567.31;5012368;28;20033;-69
2021/12/21 09:15:54;;;;;;;8.43;7.50;;;;;;;-13.19;71.77;101562.19;5012494;28;20037;-77
2021/12/21 09:18:20;;;;;;;9.60;7.83;;;;;;;-13.21;71.85;101559.63;5012906;28;20030;-68
2021/12/21 09:20:45;;;;;;;9.30;7.27;;;;;;;-13.35;72.07;101545.03;5012279;28;20419;-66
2021/12/21 09:23:12;;;;;;;7.53;6.83;;;;;;;-13.19;71.69;101570.75;5012297;28;20127;-67
2021/12/21 09:25:37;;;;;;;9.48;7.10;;;;;;;-13.27;72.05;101569.00;5012262;28;20493;-68
2021/12/21 09:28:03;;;;;;;11.67;8.67;;;;;;;-13.36;72.25;101574.06;5012167;28;20064;-69
2021/12/21 09:30:29;;;;;;;10.23;7.60;;;;;;;-13.67;71.70;101526.94;5011227;28;20033;-69
2021/12/21 09:32:55;;;;;;;8.70;7.07;;;;;;;-13.44;71.52;101560.38;5012619;28;20164;-71
2021/12/21 09:35:22;;;;;;;8.05;7.25;;;;;;;-13.36;71.41;101574.06;5012284;28;20417;-68
2021/12/21 09:37:47;;;;;;;8.10;7.30;;;;;;;-13.29;71.37;101580.97;5012377;28;20041;-68
2021/12/21 09:40:16;;;;;;;11.60;9.63;;;;;;;-13.30;71.06;101571.53;4994778;28;20034;-75
2021/12/21 09:42:43;;;;;;;7.47;6.40;;;;;;;-13.26;70.79;101581.81;5012353;28;20038;-71
2021/12/21 09:45:09;;;;;;;7.05;6.35;;;;;;;-13.43;70.71;101557.81;5011700;28;20173;-68
2021/12/21 09:47:35;;;;;;;10.13;6.65;;;;;;;-13.50;71.07;101569.75;4998867;28;20624;-66
2021/12/21 09:50:02;;;;;;;9.90;7.00;;;;;;;-13.60;71.19;101550.03;4998912;28;20033;-72
2021/12/21 09:52:32;;;;;;;12.10;7.57;;;;;;;-13.49;70.77;101575.72;5016050;28;20486;-70
2021/12/21 09:55:00;;;;;;;13.25;8.13;;;;;;;-13.48;70.90;101585.13;5015833;28;20128;-67
2021/12/21 09:57:27;;;;;;;8.45;6.13;;;;;;;-13.63;70.65;101570.50;5016179;28;20041;-65
2021/12/21 09:59:53;;;;;;;7.85;6.82;;;;;;;-13.51;71.19;101585.97;5015686;28;20045;-66
2021/12/21 10:02:22;;;;;;;10.40;7.67;;;;;;;-13.69;70.78;101565.38;5016145;28;20038;-68
2021/12/21 10:05:00;;;;;;;10.90;6.97;;;;;;;-13.52;71.55;101584.25;5015269;28;20139;-67
2021/12/21 10:07:27;;;;;;;6.50;5.88;;;;;;;-13.60;70.88;101555.16;5015637;28;20505;-71
2021/12/21 10:10:25;;;;;;;8.05;6.18;;;;;;;-13.49;71.27;101553.53;5014964;28;20390;-67
2021/12/21 10:12:51;;;;;;;10.40;6.75;;;;;;;-13.29;70.75;101583.53;4972355;28;20457;-65
2021/12/21 10:15:24;;;;;;;7.10;6.27;;;;;;;-13.27;70.32;101584.38;4997905;28;20038;-68
2021/12/21 10:18:00;;;;;;;7.93;6.93;;;;;;;-13.24;69.66;101584.41;5015055;28;20034;-66
2021/12/21 10:20:43;;;;;;;11.57;6.93;;;;;;;-13.42;69.94;101579.16;5015554;28;20054;-66
2021/12/21 10:23:11;;;;;;;10.18;7.57;;;;;;;-13.35;69.19;101580.91;5016399;28;20048;-70
2021/12/21 10:25:43;;;;;;;9.95;6.15;;;;;;;-13.45;69.68;101562.09;4998103;28;20046;-71
2021/12/21 10:28:09;;;;;;;8.90;7.65;;;;;;;-13.31;69.49;101572.38;5015583;28;20488;-69
2021/12/21 10:30:47;;;;;;;10.03;7.60;;;;;;;-13.28;69.47;101568.16;5015786;28;20034;-69
2021/12/21 10:33:12;;;;;;;7.15;6.45;;;;;;;-13.17;69.25;101568.19;5015243;28;20068;-63
2021/12/21 10:35:38;;;;;;;10.10;7.63;;;;;;;-13.13;69.42;101563.03;5015337;28;20038;-65
2021/12/21 10:38:05;;;;;;;10.13;6.65;;;;;;;-12.88;69.00;101576.78;5015137;28;20132;-73
2021/12/21 10:40:30;;;;;;;13.35;8.07;;;;;;;-12.67;68.50;101573.44;5015195;28;20042;-66
2021/12/21 10:43:02;;;;;;;12.33;8.27;;;;;;;-12.42;68.30;101573.47;4997240;28;20404;-64
2021/12/21 10:45:38;;;;;;;9.63;7.55;;;;;;;-12.32;67.42;101560.63;5014963;28;20030;-69
2021/12/21 10:48:06;;;;;;;9.27;7.65;;;;;;;-12.24;66.81;101570.91;5015133;28;20037;-68
2021/12/21 10:50:33;;;;;;;9.38;6.25;;;;;;;-12.23;67.25;101552.06;5014817;28;20092;-66
2021/12/21 10:53:01;;;;;;;12.45;7.38;;;;;;;-12.14;66.77;101548.63;5014889;28;20037;-70
2021/12/21 10:55:33;;;;;;;9.02;6.97;;;;;;;-11.94;66.70;101572.59;5014908;28;20474;-70
2021/12/21 10:58:09;;;;;;;7.40;6.20;;;;;;;-12.08;66.47;101541.81;5014726;28;20049;-68
2021/12/21 11:00:37;;;;;;;8.18;6.75;;;;;;;-11.98;66.70;101565.75;4996595;28;20456;-66
2021/12/21 11:03:03;;;;;;;11.27;8.27;;;;;;;-12.01;66.80;101570.91;5015315;28;20042;-71
2021/12/21 11:05:29;;;;;;;13.70;8.13;;;;;;;-11.96;67.14;101567.47;5000252;28;20044;-72
2021/12/21 11:08:07;;;;;;;9.63;6.70;;;;;;;-11.99;67.29;101569.19;5014441;28;20053;-65
2021/12/21 11:10:36;;;;;;;11.07;6.60;;;;;;;-12.06;67.35;101567.47;5014610;28;20077;-69
2021/12/21 11:13:07;;;;;;;;;;;;;;;-12.07;67.34;101587.16;5014566;28;20125;-64
2021/12/21 11:15:43;;;;;;;10.93;7.38;;;;;;;-12.24;67.80;101563.19;4998027;28;19924;-73
2021/12/21 11:18:14;;;;;;;10.45;6.18;;;;;;;-12.17;67.47;101589.72;5015129;28;20026;-69
2021/12/21 11:20:43;;;;;;;9.45;6.38;;;;;;;-12.24;68.17;101589.72;5015377;28;20540;-73
2021/12/21 11:23:12;;;;;;;7.90;7.07;;;;;;;-12.24;68.22;101588.88;5014795;28;20049;-70
2021/12/21 11:25:38;;;;;;;8.38;7.03;;;;;;;-12.32;68.46;101578.59;5014287;28;20385;-68
2021/12/21 11:28:05;;;;;;;7.57;6.00;;;;;;;-12.42;69.01;101578.59;5014802;28;20178;-72
2021/12/21 11:30:32;;;;;;;11.52;7.55;;;;;;;-12.50;68.84;101581.13;5014227;28;20049;-69
2021/12/21 11:33:02;;;;;;;13.98;6.82;;;;;;;-12.47;69.41;101588.84;4996701;28;20393;-70
2021/12/21 11:38:02;;;;;;;9.10;7.72;;;;;;;-12.55;70.03;101587.97;5014331;28;20046;-67
2021/12/21 11:40:35;;;;;;;11.70;8.18;;;;;;;-12.46;69.60;101580.28;5014295;28;20511;-71
2021/12/21 11:43:06;;;;;;;14.70;9.52;;;;;;;-12.39;69.10;101584.59;5015072;28;20038;-69
2021/12/21 11:45:41;;;;;;;10.18;6.85;;;;;;;-12.41;69.52;101578.59;4997046;28;20034;-64
2021/12/21 11:48:09;;;;;;;11.82;8.77;;;;;;;-12.35;69.76;101586.31;5015594;28;20038;-66
2021/12/21 11:50:37;;;;;;;11.77;7.70;;;;;;;-12.36;69.91;101589.72;5014571;28;20057;-68
2021/12/21 11:53:08;;;;;;;9.27;7.32;;;;;;;-12.32;69.58;101595.72;5013049;28;20030;-68
2021/12/21 11:55:36;;;;;;;9.48;7.25;;;;;;;-12.54;69.09;101558.91;4996900;28;20038;-65
2021/12/21 11:58:16;;;;;;;11.85;8.38;;;;;;;-12.28;68.68;101588.00;4997052;28;20177;-65
2021/12/21 12:00:49;;;;;;;14.63;9.70;;;;;;;-12.94;69.78;101481.06;5014734;28;20042;-69
2021/12/21 12:03:20;;;;;;;18.10;8.15;;;;;;;-12.31;69.58;101582.03;5014293;28;20409;-61
2021/12/21 12:06:04;;;;;;;10.50;7.20;;;;;;;-12.56;69.83;101535.81;5013608;28;20026;-65
2021/12/21 12:08:56;;;;;;;11.38;7.45;;;;;;;-12.13;69.30;101596.59;5013714;28;20056;-71
2021/12/21 12:11:26;;;;;;;10.65;8.40;;;;;;;-12.30;68.96;101573.47;5013367;28;20038;-65
2021/12/21 12:14:02;;;;;;;9.80;7.43;;;;;;;-12.24;69.57;101582.03;5013342;28;20398;-63
2021/12/21 12:16:39;;;;;;;10.38;6.88;;;;;;;-12.24;69.36;101584.59;5013448;28;20042;-62
2021/12/21 12:19:12;;;;;;;9.15;6.50;;;;;;;-12.16;69.31;101596.56;5012740;28;20137;-62
2021/12/21 12:21:38;;;;;;;13.75;8.77;;;;;;;-12.17;69.47;101589.72;5013698;28;20099;-65
2021/12/21 12:24:05;;;;;;;8.95;6.45;;;;;;;-12.15;69.43;101603.41;5012942;28;20425;-62
2021/12/21 12:26:32;;;;;;;7.60;6.37;;;;;;;-12.24;69.40;101594.00;5011799;28;20030;-62
2021/12/21 12:29:11;;;;;;;12.23;7.75;;;;;;;-12.25;69.37;101605.13;5015933;28;20096;-61